createdAt,value
2022-12-22T03:05:52.453Z,10.00
2022-12-22T03:08:37.711Z,10.00
2022-12-22T03:11:23.237Z,10.00
2022-12-22T03:14:08.529Z,9.90
2022-12-22T03:16:53.827Z,9.90
2022-12-22T03:19:39.066Z,9.90
2022-12-22T03:22:24.346Z,9.90
2022-12-22T03:25:09.651Z,9.90
2022-12-22T03:27:36.446Z,9.80
2022-12-22T03:30:03.803Z,9.80
2022-12-22T03:32:30.591Z,9.80
2022-12-22T03:34:57.299Z,9.80
2022-12-22T03:37:24.070Z,9.80
2022-12-22T03:39:50.823Z,9.80
2022-12-22T03:42:36.079Z,9.80
2022-12-22T03:45:21.351Z,9.80
2022-12-22T03:47:48.074Z,9.80
2022-12-22T03:50:15.092Z,9.80
2022-12-22T03:52:41.842Z,9.80
2022-12-22T03:55:08.925Z,9.80
2022-12-22T03:57:35.745Z,9.80
2022-12-22T04:00:02.797Z,9.70
2022-12-22T04:02:39.052Z,9.70
2022-12-22T04:05:06.423Z,9.70
2022-12-22T04:07:33.288Z,9.70
2022-12-22T04:10:18.595Z,9.80
2022-12-22T04:12:54.708Z,9.80
2022-12-22T04:15:26.797Z,9.70
2022-12-22T04:17:54.242Z,9.70
2022-12-22T04:20:22.565Z,9.70
2022-12-22T04:22:49.616Z,9.70
2022-12-22T04:25:16.605Z,9.70
2022-12-22T04:27:44.809Z,9.60
2022-12-22T04:30:12.070Z,9.60
2022-12-22T04:32:44.542Z,9.60
2022-12-22T04:35:11.869Z,9.50
2022-12-22T04:37:39.481Z,9.50
2022-12-22T04:40:06.848Z,9.50
2022-12-22T04:42:34.231Z,9.50
2022-12-22T04:45:00.960Z,9.40
2022-12-22T04:47:27.753Z,9.50
2022-12-22T04:49:55.818Z,9.50
2022-12-22T04:52:23.162Z,9.50
2022-12-22T04:54:50.009Z,9.50
2022-12-22T04:57:16.913Z,9.60
2022-12-22T04:59:43.662Z,9.60
2022-12-22T05:02:10.577Z,9.60
2022-12-22T05:04:37.407Z,9.50
2022-12-22T05:07:04.881Z,9.50
2022-12-22T05:09:31.587Z,9.50
2022-12-22T05:11:58.326Z,9.50
2022-12-22T05:14:25.190Z,9.60
2022-12-22T05:16:52.115Z,9.60
2022-12-22T05:19:19.080Z,9.60
2022-12-22T05:21:45.906Z,9.60
2022-12-22T05:24:12.936Z,9.60
2022-12-22T05:26:39.738Z,9.60
2022-12-22T05:29:06.532Z,9.50
2022-12-22T05:31:46.929Z,9.50
2022-12-22T05:34:14.785Z,9.50
2022-12-22T05:36:41.521Z,9.40
2022-12-22T05:39:08.788Z,9.30
2022-12-22T05:41:36.189Z,9.40
2022-12-22T05:44:03.085Z,9.40
2022-12-22T05:46:30.092Z,9.40
2022-12-22T05:48:56.942Z,9.40
2022-12-22T05:51:24.268Z,9.40
2022-12-22T05:53:51.006Z,9.50
2022-12-22T05:56:17.858Z,9.50
2022-12-22T05:58:46.757Z,9.50
2022-12-22T06:01:13.548Z,9.50
2022-12-22T06:03:40.451Z,9.50
2022-12-22T06:06:07.439Z,9.50
2022-12-22T06:08:34.188Z,9.50
2022-12-22T06:11:01.205Z,9.60
2022-12-22T06:13:28.173Z,9.60
2022-12-22T06:15:55.067Z,9.60
2022-12-22T06:18:22.010Z,9.70
2022-12-22T06:20:52.548Z,9.70
2022-12-22T06:23:19.864Z,9.70
2022-12-22T06:26:01.633Z,9.80
2022-12-22T06:28:29.130Z,9.80
2022-12-22T06:30:56.453Z,9.90
2022-12-22T06:33:23.329Z,9.90
2022-12-22T06:36:04.906Z,9.90
2022-12-22T06:38:31.771Z,9.90
2022-12-22T06:40:58.626Z,9.90
2022-12-22T06:43:26.144Z,9.90
2022-12-22T06:45:53.871Z,9.80
2022-12-22T06:48:20.810Z,9.90
2022-12-22T06:50:47.807Z,9.80
2022-12-22T06:53:14.635Z,9.90
2022-12-22T06:55:41.516Z,9.90
2022-12-22T06:58:08.363Z,9.90
2022-12-22T07:00:35.434Z,9.90
2022-12-22T07:03:02.403Z,9.90
2022-12-22T07:05:31.826Z,10.00
2022-12-22T07:08:05.973Z,10.00
2022-12-22T07:10:53.389Z,10.00
2022-12-22T07:13:20.146Z,10.00
2022-12-22T07:15:50.966Z,9.90
2022-12-22T07:18:24.440Z,10.00
2022-12-22T07:20:51.197Z,10.00
2022-12-22T07:23:18.443Z,10.00
2022-12-22T07:25:45.976Z,10.10
2022-12-22T07:28:18.354Z,10.10
2022-12-22T07:30:47.863Z,10.10
2022-12-22T07:33:14.683Z,10.20
2022-12-22T07:35:41.424Z,10.10
2022-12-22T07:38:08.666Z,10.20
2022-12-22T07:40:41.166Z,10.20
2022-12-22T07:43:08.766Z,10.20
2022-12-22T07:45:35.671Z,10.20
2022-12-22T07:48:23.282Z,10.20
2022-12-22T07:50:50.418Z,10.30
2022-12-22T07:53:17.723Z,10.30
2022-12-22T07:55:44.604Z,10.30
2022-12-22T07:58:11.695Z,10.30
2022-12-22T08:00:38.518Z,10.20
2022-12-22T08:03:06.366Z,10.20
2022-12-22T08:05:33.328Z,10.20
2022-12-22T08:08:00.223Z,10.20
2022-12-22T08:10:27.110Z,10.20
2022-12-22T08:13:32.194Z,10.20
2022-12-22T08:16:10.967Z,10.10
2022-12-22T08:18:39.275Z,10.20
2022-12-22T08:21:07.231Z,10.20
2022-12-22T08:23:34.781Z,10.20
2022-12-22T08:26:07.623Z,10.30
2022-12-22T08:28:39.806Z,10.30
2022-12-22T08:31:12.912Z,10.30
2022-12-22T08:33:39.969Z,10.30
2022-12-22T08:36:08.590Z,10.40
2022-12-22T08:38:37.579Z,10.30
2022-12-22T08:41:04.699Z,10.30
2022-12-22T08:44:10.894Z,10.30
2022-12-22T08:46:38.332Z,10.30
2022-12-22T08:49:05.566Z,10.40
2022-12-22T08:51:32.856Z,10.40
2022-12-22T08:54:05.121Z,10.40
2022-12-22T08:56:33.033Z,10.40
2022-12-22T08:59:01.405Z,10.40
2022-12-22T09:01:28.534Z,10.40
2022-12-22T09:03:55.524Z,10.40
2022-12-22T09:06:28.015Z,10.40
2022-12-22T09:08:58.212Z,10.40
2022-12-22T09:11:25.896Z,10.30
2022-12-22T09:13:54.675Z,10.40
2022-12-22T09:16:23.119Z,10.40
2022-12-22T09:18:50.623Z,10.50
2022-12-22T09:21:18.240Z,10.50
2022-12-22T09:23:45.380Z,10.60
2022-12-22T09:26:16.846Z,10.60
2022-12-22T09:28:50.409Z,10.70
2022-12-22T09:31:25.727Z,10.80
2022-12-22T09:33:52.965Z,10.80
2022-12-22T09:36:22.851Z,10.90
2022-12-22T09:38:50.005Z,10.90
2022-12-22T09:41:31.909Z,10.90
2022-12-22T09:44:06.963Z,11.00
2022-12-22T09:46:37.548Z,11.10
2022-12-22T09:49:07.050Z,11.20
2022-12-22T09:51:43.445Z,11.20
2022-12-22T09:54:12.725Z,11.20
2022-12-22T09:56:40.329Z,11.30
2022-12-22T09:59:16.379Z,11.20
2022-12-22T10:01:56.961Z,11.30
2022-12-22T10:04:35.986Z,11.20
2022-12-22T10:07:14.792Z,11.30
2022-12-22T10:09:51.118Z,11.40
2022-12-22T10:12:24.362Z,11.50
2022-12-22T10:14:53.362Z,11.50
2022-12-22T10:17:29.146Z,11.50
2022-12-22T10:20:21.644Z,11.50
2022-12-22T10:23:00.728Z,11.50
2022-12-22T10:26:00.014Z,11.50
2022-12-22T10:28:27.892Z,11.50
2022-12-22T10:31:11.854Z,11.50
2022-12-22T10:33:45.965Z,11.50
2022-12-22T10:36:17.097Z,11.50
2022-12-22T10:39:19.121Z,11.50
2022-12-22T10:41:49.703Z,11.50
2022-12-22T10:44:16.587Z,11.40
2022-12-22T10:46:43.593Z,11.40
2022-12-22T10:49:15.114Z,11.40
2022-12-22T10:51:44.716Z,11.40
2022-12-22T10:54:25.591Z,11.40
2022-12-22T10:57:26.138Z,11.40
2022-12-22T10:59:56.857Z,11.50
2022-12-22T11:02:23.736Z,11.50
2022-12-22T11:04:51.880Z,11.50
2022-12-22T11:07:19.430Z,11.60
2022-12-22T11:09:46.289Z,11.60
2022-12-22T11:12:51.851Z,11.50
2022-12-22T11:15:24.573Z,11.50
2022-12-22T11:18:14.230Z,11.50
2022-12-22T11:20:55.195Z,11.50
2022-12-22T11:26:35.762Z,11.40
2022-12-22T11:29:33.172Z,11.30
2022-12-22T11:32:16.940Z,11.20
2022-12-22T11:35:05.418Z,11.20
2022-12-22T11:38:01.410Z,11.20
2022-12-22T11:40:46.500Z,11.20
2022-12-22T11:43:13.373Z,11.20
2022-12-22T11:45:57.368Z,11.20
2022-12-22T11:48:53.503Z,11.30
2022-12-22T11:51:46.511Z,11.30
2022-12-22T11:54:51.061Z,11.20
2022-12-22T11:57:45.891Z,11.20
2022-12-22T12:00:18.156Z,11.20
2022-12-22T12:03:22.459Z,11.20
2022-12-22T12:06:07.659Z,11.20
2022-12-22T12:08:53.114Z,11.20
2022-12-22T12:11:38.903Z,11.20
2022-12-22T12:14:20.838Z,11.20
2022-12-22T12:17:08.540Z,11.20
2022-12-22T12:20:13.551Z,11.10
2022-12-22T12:23:13.903Z,11.10
2022-12-22T12:26:02.561Z,11.10
2022-12-22T12:28:40.611Z,11.10
2022-12-22T12:31:11.209Z,11.10
2022-12-22T12:33:56.870Z,11.20
2022-12-22T12:36:45.726Z,11.10
2022-12-22T12:39:16.170Z,11.10
2022-12-22T12:42:11.319Z,11.10
2022-12-22T12:44:39.289Z,11.20
2022-12-22T12:47:08.208Z,11.20
2022-12-22T12:49:35.203Z,11.20
2022-12-22T12:52:04.290Z,11.20
2022-12-22T12:54:35.932Z,11.20
2022-12-22T12:57:38.613Z,11.30
2022-12-22T13:00:06.180Z,11.30
2022-12-22T13:02:38.204Z,11.40
2022-12-22T13:05:08.404Z,11.30
2022-12-22T13:08:07.730Z,11.40
2022-12-22T13:10:39.868Z,11.40
2022-12-22T13:13:10.813Z,11.30
2022-12-22T13:15:41.547Z,11.40
2022-12-22T13:18:38.058Z,11.40
2022-12-22T13:24:26.219Z,11.50
2022-12-22T13:26:55.875Z,11.50
2022-12-22T13:29:22.931Z,11.50
2022-12-22T13:31:55.834Z,11.40
2022-12-22T13:34:23.145Z,11.40
2022-12-22T13:36:51.104Z,11.40
2022-12-22T13:39:18.033Z,11.40
2022-12-22T13:41:48.073Z,11.40
2022-12-22T13:44:19.520Z,11.40
2022-12-22T13:46:47.013Z,11.40
2022-12-22T13:49:36.164Z,11.50
2022-12-22T13:52:05.599Z,11.50
2022-12-22T13:54:35.988Z,11.40
2022-12-22T13:57:05.425Z,11.50
2022-12-22T13:59:40.517Z,11.40
2022-12-22T14:02:10.228Z,11.40
2022-12-22T14:04:39.433Z,11.40
2022-12-22T14:07:14.362Z,11.40
2022-12-22T14:09:49.023Z,11.40
2022-12-22T14:12:22.190Z,11.30
2022-12-22T14:14:51.223Z,11.30
2022-12-22T14:17:35.964Z,11.30
2022-12-22T14:20:16.935Z,11.30
2022-12-22T14:22:52.237Z,11.30
2022-12-22T14:25:25.242Z,11.30
2022-12-22T14:27:57.462Z,11.20
2022-12-22T14:30:36.241Z,11.20
2022-12-22T14:33:18.152Z,11.20
2022-12-22T14:35:45.144Z,11.20
2022-12-22T14:38:24.744Z,11.10
2022-12-22T14:40:57.234Z,11.10
2022-12-22T14:43:30.950Z,11.10
2022-12-22T14:46:07.485Z,11.10
2022-12-22T14:48:41.013Z,11.10
2022-12-22T14:51:08.072Z,11.10
2022-12-22T14:53:45.350Z,11.10
2022-12-22T14:56:18.514Z,11.10
2022-12-22T14:58:47.130Z,11.10
2022-12-22T15:01:28.614Z,11.10
2022-12-22T15:04:04.855Z,11.10
2022-12-22T15:06:47.598Z,11.00
2022-12-22T15:09:14.418Z,11.00
2022-12-22T15:11:53.955Z,10.90
2022-12-22T15:14:33.418Z,10.90
2022-12-22T15:17:05.593Z,10.90
2022-12-22T15:19:34.666Z,10.90
2022-12-22T15:22:03.059Z,10.90
2022-12-22T15:24:29.890Z,10.90
2022-12-22T15:26:56.748Z,10.90
2022-12-22T15:29:23.589Z,10.80
2022-12-22T15:31:50.543Z,10.80
2022-12-22T15:34:31.042Z,10.80
2022-12-22T15:36:58.273Z,10.80
2022-12-22T15:39:25.313Z,10.70
2022-12-22T15:41:52.247Z,10.70
2022-12-22T15:44:19.150Z,10.60
2022-12-22T15:46:55.197Z,10.60
2022-12-22T15:49:25.552Z,10.50
2022-12-22T15:51:56.268Z,10.50
2022-12-22T15:54:25.507Z,10.50
2022-12-22T15:56:54.000Z,10.50
2022-12-22T15:59:25.520Z,10.50
2022-12-22T16:01:58.366Z,10.50
2022-12-22T16:04:28.507Z,10.50
2022-12-22T16:06:55.915Z,10.40
2022-12-22T16:09:31.318Z,10.30
2022-12-22T16:11:58.458Z,10.30
2022-12-22T16:14:25.411Z,10.20
2022-12-22T16:16:52.570Z,10.20
2022-12-22T16:19:19.827Z,10.20
2022-12-22T16:21:49.561Z,10.10
2022-12-22T16:24:30.075Z,10.10
2022-12-22T16:26:58.005Z,10.10
2022-12-22T16:29:25.395Z,10.10
2022-12-22T16:31:55.190Z,10.10
2022-12-22T16:34:25.395Z,10.00
2022-12-22T16:36:52.247Z,10.00
2022-12-22T16:39:19.007Z,10.00
2022-12-22T16:41:46.105Z,9.90
2022-12-22T16:47:21.301Z,9.90
2022-12-22T16:49:52.577Z,9.90
2022-12-22T16:52:22.310Z,9.80
2022-12-22T16:54:52.864Z,9.80
2022-12-22T16:57:19.822Z,9.60
2022-12-22T16:59:46.999Z,9.60
2022-12-22T17:02:29.001Z,9.50
2022-12-22T17:05:00.271Z,9.40
2022-12-22T17:07:32.331Z,9.30
2022-12-22T17:10:04.194Z,9.30
2022-12-22T17:12:34.513Z,9.30
2022-12-22T17:15:02.005Z,9.20
2022-12-22T17:17:35.449Z,9.10
2022-12-22T17:20:06.228Z,9.10
2022-12-22T17:22:43.770Z,9.10
2022-12-22T17:25:28.686Z,9.00
2022-12-22T17:27:57.567Z,9.00
2022-12-22T17:30:28.648Z,8.90
2022-12-22T17:32:55.579Z,8.90
2022-12-22T17:35:25.874Z,8.90
2022-12-22T17:37:53.480Z,8.80
2022-12-22T17:40:30.921Z,8.70
2022-12-22T17:43:00.616Z,8.70
2022-12-22T17:45:27.717Z,8.60
2022-12-22T17:47:54.566Z,8.60
2022-12-22T17:50:23.313Z,8.50
2022-12-22T17:52:50.541Z,8.40
2022-12-22T17:56:01.271Z,8.30
2022-12-22T17:58:17.704Z,8.30
2022-12-22T18:00:44.946Z,8.20
2022-12-22T18:03:18.234Z,8.10
2022-12-22T18:05:51.074Z,8.10
2022-12-22T18:08:23.266Z,8.10
2022-12-22T18:10:50.272Z,7.90
2022-12-22T18:13:27.140Z,7.80
2022-12-22T18:15:55.994Z,7.80
2022-12-22T18:18:23.743Z,7.80
2022-12-22T18:21:06.914Z,7.80
2022-12-22T18:23:44.531Z,7.80
2022-12-22T18:26:24.876Z,7.80
2022-12-22T18:28:52.837Z,7.70
2022-12-22T18:31:20.361Z,7.70
2022-12-22T18:33:50.575Z,7.60
2022-12-22T18:36:33.155Z,7.60
2022-12-22T18:39:11.816Z,7.50
2022-12-22T18:41:48.581Z,7.40
2022-12-22T18:44:20.476Z,7.40
2022-12-22T18:46:48.836Z,7.40
2022-12-22T18:49:17.059Z,7.30
2022-12-22T18:51:45.492Z,7.40
2022-12-22T18:54:29.507Z,7.30
2022-12-22T18:56:56.544Z,7.40
2022-12-22T18:59:27.992Z,7.40
2022-12-22T19:02:18.391Z,7.40
2022-12-22T19:04:45.593Z,7.40
2022-12-22T19:07:21.827Z,7.40
2022-12-22T19:09:49.661Z,7.50
2022-12-22T19:12:23.372Z,7.40
2022-12-22T19:14:54.053Z,7.40
2022-12-22T19:17:24.815Z,7.40
2022-12-22T19:19:51.946Z,7.40
2022-12-22T19:22:18.814Z,7.50
2022-12-22T19:24:45.966Z,7.50
2022-12-22T19:27:24.768Z,7.50
2022-12-22T19:30:03.162Z,7.50
2022-12-22T19:32:38.382Z,7.60
2022-12-22T19:35:13.108Z,7.70
2022-12-22T19:37:40.037Z,7.50
2022-12-22T19:40:07.651Z,7.60
2022-12-22T19:42:35.326Z,7.60
2022-12-22T19:45:10.334Z,7.70
2022-12-22T19:47:38.533Z,7.80
2022-12-22T19:50:23.485Z,7.80
2022-12-22T19:52:54.919Z,7.80
2022-12-22T19:55:28.165Z,7.90
2022-12-22T19:57:58.250Z,7.80
2022-12-22T20:00:27.462Z,7.90
2022-12-22T20:02:57.428Z,8.10
2022-12-22T20:05:24.439Z,8.20
2022-12-22T20:07:54.794Z,8.30
2022-12-22T20:10:23.684Z,8.40
2022-12-22T20:12:52.573Z,8.50
2022-12-22T20:15:30.224Z,8.60
2022-12-22T20:17:58.283Z,8.80
2022-12-22T20:20:34.913Z,8.90
2022-12-22T20:23:06.827Z,9.00
2022-12-22T20:25:40.819Z,9.00
2022-12-22T20:28:22.011Z,9.00
2022-12-22T20:30:50.274Z,8.90
2022-12-22T20:33:19.493Z,8.80
2022-12-22T20:35:50.730Z,8.90
2022-12-22T20:38:21.881Z,8.90
2022-12-22T20:41:04.081Z,9.00
2022-12-22T20:43:33.229Z,9.00
2022-12-22T20:46:12.264Z,9.00
2022-12-22T20:48:46.115Z,9.10
2022-12-22T20:54:26.588Z,9.20
2022-12-22T20:56:53.746Z,9.20
2022-12-22T20:59:23.356Z,9.30
2022-12-22T21:01:52.151Z,9.40
2022-12-22T21:04:20.515Z,9.40
2022-12-22T21:06:53.315Z,9.40
2022-12-22T21:09:20.687Z,9.40
2022-12-22T21:11:51.452Z,9.50
2022-12-22T21:14:18.485Z,9.40
2022-12-22T21:16:49.194Z,9.40
2022-12-22T21:19:21.367Z,9.40
2022-12-22T21:21:48.502Z,9.40
2022-12-22T21:24:15.866Z,9.30
2022-12-22T21:26:48.572Z,9.30
2022-12-22T21:29:26.294Z,9.30
2022-12-22T21:32:06.581Z,9.30
2022-12-22T21:34:35.683Z,9.30
2022-12-22T21:37:03.670Z,9.30
2022-12-22T21:39:41.797Z,9.30
2022-12-22T21:42:17.246Z,9.30
2022-12-22T21:44:45.497Z,9.30
2022-12-22T21:47:14.468Z,9.30
2022-12-22T21:50:05.108Z,9.30
2022-12-22T21:52:32.035Z,9.30
2022-12-22T21:55:01.867Z,9.30
2022-12-22T21:57:30.060Z,9.30
2022-12-22T21:59:57.470Z,9.30
2022-12-22T22:02:25.971Z,9.40
2022-12-22T22:05:01.840Z,9.40
2022-12-22T22:07:29.066Z,9.50
2022-12-22T22:09:59.181Z,9.60
2022-12-22T22:12:37.253Z,9.60
2022-12-22T22:15:06.176Z,9.70
2022-12-22T22:17:42.603Z,9.70
2022-12-22T22:20:14.014Z,9.70
2022-12-22T22:22:41.620Z,9.80
2022-12-22T22:25:11.367Z,9.80
2022-12-22T22:28:05.365Z,9.80
2022-12-22T22:30:32.310Z,9.80
2022-12-22T22:33:02.297Z,9.70
2022-12-22T22:35:29.600Z,9.60
2022-12-22T22:37:56.667Z,9.60
2022-12-22T22:40:24.141Z,9.50
2022-12-22T22:42:51.246Z,9.60
2022-12-22T22:45:24.313Z,9.50
2022-12-22T22:47:52.562Z,9.40
2022-12-22T22:50:21.317Z,9.40
2022-12-22T22:53:09.472Z,9.30
2022-12-22T22:55:45.454Z,9.40
2022-12-22T22:58:21.062Z,9.30
2022-12-22T23:01:11.267Z,9.30
2022-12-22T23:03:38.426Z,9.30
2022-12-22T23:06:10.024Z,9.30
2022-12-22T23:08:40.072Z,9.30
2022-12-22T23:11:13.089Z,9.30
2022-12-22T23:13:43.606Z,9.20
2022-12-22T23:16:10.837Z,9.20
2022-12-22T23:18:42.910Z,9.20
2022-12-22T23:21:21.159Z,9.20
2022-12-22T23:24:00.470Z,9.20
2022-12-22T23:26:28.567Z,9.20
2022-12-22T23:29:18.450Z,9.20
2022-12-22T23:31:49.529Z,9.20
2022-12-22T23:34:20.114Z,9.20
2022-12-22T23:36:47.253Z,9.10
2022-12-22T23:39:18.104Z,9.20
2022-12-22T23:41:49.865Z,9.10
2022-12-22T23:44:17.120Z,9.10
2022-12-22T23:46:50.009Z,9.10
2022-12-22T23:49:19.458Z,9.10
2022-12-22T23:51:46.855Z,9.10
2022-12-22T23:54:14.011Z,9.10
2022-12-22T23:56:41.143Z,9.10
2022-12-22T23:59:08.805Z,9.10
